Aeroporto :
LOGIN :

Iscrizione | Disclaimer

   EN    FR    IT 

 










Sommario :    VFR   VFR Marginale   IFR   IFR Intensivo   IFR Molto Intensivo
Visibilità : 
Base nubi : 
>= 8 km
>= 3000ft
5 / 8 km
1000 / 3000 ft
1500m / 5 km
500 / 1000 ft
800 / 1500m
200 / 500 ft
< 800m
< 200 ft
Simboli :   Temporali  Nebbia  Neve Forte  Precipitazioni Forti  Vento > 20 kt
SIGMETs :   Varie  Temporali  Ghiacco  Turbolenza  Onda orograficha  Ceneri Vulcaniche






- Altitudine del aeroporto : 1516 ft
- Codice IATA : AGB


EDMA - Augsburg

ULTIMO METAR :
  • 132020Z AUTO 12004KT 9999 // NCD 14/12 Q1017

METARs OBSOLETI :
  • 131950Z AUTO 11004KT 070V130 9999 // FEW140/// 14/12 Q1017
  • 131920Z AUTO VRB02KT 9999 // NCD 14/11 Q1017
  • 131850Z 16006KT CAVOK 16/13 Q1017
  • 131820Z 16004KT CAVOK 16/13 Q1017
  • 131750Z 17003KT 130V200 CAVOK 17/13 Q1017

TAF TAF EDMA
Valido dal 13 a 18 ore il 14 a 03 ore UTC


131700Z 1318/1403 13004KT CAVOK
PROB30
TEMPO 1401/1403 3000 BCFG



MetMap, La meteo Aeronautica in un colpo d'occhio ! - Copyright ORBIFLY Dicembre 2007 - Disclaimer

ORBIFLY MET'MAP TEAM :

Programmazione e sviluppo : Alexandra Zaïnal
Concezione e sviluppo : Baudouin d'Aumeries
Co-Programmazione e sviluppo : Marc-Olivier Méhu
Supporto tecnico e logistico : Manuel Goepfert
Aiuto per la traduzione : Arnaldo La Scala

Contatto : metmap@orbifly.com




FONTI E CREDITI :

   NOAA